Time;durP1;ratioP1;P1;durP2;ratioP2;P2;SDS_P1;SDS_P2;PMS_P1;PMS_P2;Temp;Humidity;BMP_temperature;BMP_pressure;BME280_temperature;BME280_humidity;BME280_pressure;Samples;Min_cycle;Max_cycle;Signal;HPM_P1;HPM_P2
2023/01/28 00:01:44;;;;;;;9.20;5.67;;;3.20;99.90;;;;;;5093077;28;20044;-79
2023/01/28 00:04:10;;;;;;;7.80;5.40;;;3.10;99.90;;;;;;5093155;28;20093;-78
2023/01/28 00:06:37;;;;;;;6.60;5.40;;;3.10;99.90;;;;;;5092797;28;20369;-80
2023/01/28 00:09:03;;;;;;;7.18;5.93;;;3.10;99.90;;;;;;5093412;28;20294;-78
2023/01/28 00:11:28;;;;;;;7.13;5.20;;;3.10;99.90;;;;;;5093206;28;20040;-79
2023/01/28 00:13:54;;;;;;;8.63;5.43;;;3.10;99.90;;;;;;5092836;28;20040;-78
2023/01/28 00:16:21;;;;;;;7.10;5.57;;;3.20;99.90;;;;;;5075349;28;20060;-78
2023/01/28 00:18:47;;;;;;;7.25;5.30;;;3.10;99.90;;;;;;5091850;28;20496;-79
2023/01/28 00:21:14;;;;;;;8.18;6.15;;;3.20;99.90;;;;;;5092728;28;20050;-78
2023/01/28 00:23:42;;;;;;;9.05;6.05;;;3.20;99.90;;;;;;5091484;28;20040;-79
2023/01/28 00:26:13;;;;;;;7.45;5.82;;;3.20;99.90;;;;;;5092983;28;20041;-78
2023/01/28 00:28:40;;;;;;;7.90;6.05;;;3.30;99.90;;;;;;5092672;28;20044;-78
2023/01/28 00:31:06;;;;;;;6.72;5.47;;;3.30;99.90;;;;;;5092966;28;20483;-78
2023/01/28 00:33:32;;;;;;;7.68;5.78;;;3.30;99.90;;;;;;5091634;28;20088;-78
2023/01/28 00:36:02;;;;;;;7.40;5.80;;;3.30;99.90;;;;;;5092705;28;20083;-78
2023/01/28 00:38:28;;;;;;;8.10;6.40;;;3.30;99.90;;;;;;5092986;28;20423;-78
2023/01/28 00:40:55;;;;;;;7.10;5.57;;;3.30;99.90;;;;;;5091524;28;20104;-78
2023/01/28 00:43:21;;;;;;;7.30;5.85;;;3.30;99.90;;;;;;5092824;28;20048;-78
2023/01/28 00:45:46;;;;;;;6.97;5.53;;;3.20;99.90;;;;;;5092613;28;20044;-79
2023/01/28 00:48:12;;;;;;;8.17;6.43;;;3.30;99.90;;;;;;5092654;28;20047;-78
2023/01/28 00:50:39;;;;;;;8.27;6.97;;;3.30;99.90;;;;;;5092893;28;20059;-79
2023/01/28 00:53:04;;;;;;;9.70;7.20;;;3.30;99.90;;;;;;5092731;28;20047;-78
2023/01/28 00:55:30;;;;;;;9.30;6.73;;;3.40;99.90;;;;;;5091636;28;20468;-78
2023/01/28 00:57:56;;;;;;;11.27;7.03;;;3.30;99.90;;;;;;5092489;28;20047;-78
2023/01/28 01:00:26;;;;;;;8.87;6.27;;;3.40;99.90;;;;;;5091625;28;20162;-77
2023/01/28 01:02:52;;;;;;;9.88;6.40;;;3.40;99.90;;;;;;5092371;28;20051;-78
2023/01/28 01:05:17;;;;;;;7.60;6.13;;;3.40;99.90;;;;;;5091857;28;20499;-78
2023/01/28 01:07:43;;;;;;;7.27;5.60;;;3.40;99.90;;;;;;5092412;28;20032;-78
2023/01/28 01:10:16;;;;;;;7.30;5.73;;;3.40;99.90;;;;;;5092618;28;20480;-78
2023/01/28 01:12:42;;;;;;;7.97;5.47;;;3.30;99.90;;;;;;5092369;28;20047;-78
2023/01/28 01:15:09;;;;;;;8.60;4.70;;;3.30;99.90;;;;;;5092772;28;20043;-77
2023/01/28 01:17:40;;;;;;;7.43;4.57;;;3.30;99.90;;;;;;5094511;28;20067;-77
2023/01/28 01:20:10;;;;;;;6.80;5.10;;;3.30;99.90;;;;;;5096379;28;20093;-77
2023/01/28 01:22:36;;;;;;;6.20;4.43;;;3.30;99.90;;;;;;5096485;28;20442;-78
2023/01/28 01:25:04;;;;;;;5.70;4.45;;;3.30;99.90;;;;;;5094937;28;20044;-78
2023/01/28 01:27:31;;;;;;;6.03;4.63;;;3.30;99.90;;;;;;5096082;28;20052;-77
2023/01/28 01:29:57;;;;;;;7.00;4.82;;;3.30;99.90;;;;;;5094671;28;20082;-78
2023/01/28 01:32:24;;;;;;;7.32;5.40;;;3.30;99.90;;;;;;5094767;28;20044;-76
2023/01/28 01:34:50;;;;;;;8.10;5.60;;;3.30;99.90;;;;;;5095795;28;20086;-78
2023/01/28 01:37:16;;;;;;;7.03;5.50;;;3.30;99.90;;;;;;5094915;28;20040;-77
2023/01/28 01:39:42;;;;;;;5.60;4.73;;;3.30;99.90;;;;;;5095521;28;20396;-78
2023/01/28 01:42:12;;;;;;;7.50;5.60;;;3.30;99.90;;;;;;5094461;28;20083;-78
2023/01/28 01:44:56;;;;;;;7.20;5.40;;;3.30;99.90;;;;;;5095857;28;20048;-77
2023/01/28 01:47:28;;;;;;;6.93;5.70;;;3.30;99.90;;;;;;5095696;28;20090;-78
2023/01/28 01:49:55;;;;;;;8.30;5.53;;;3.40;99.90;;;;;;5095383;28;20044;-77
2023/01/28 01:52:27;;;;;;;7.15;5.80;;;3.30;99.90;;;;;;5094911;28;20036;-77
2023/01/28 01:54:57;;;;;;;7.68;5.97;;;3.40;99.90;;;;;;5095502;28;20040;-77
2023/01/28 01:57:28;;;;;;;7.60;6.13;;;3.40;99.90;;;;;;5095777;28;20054;-77
2023/01/28 01:59:57;;;;;;;7.63;5.70;;;3.40;99.90;;;;;;5094341;28;20537;-78
2023/01/28 02:02:23;;;;;;;8.68;6.18;;;3.40;99.90;;;;;;5095528;28;20090;-77
2023/01/28 02:04:49;;;;;;;7.20;5.78;;;3.50;99.90;;;;;;5095166;28;20079;-77
2023/01/28 02:07:16;;;;;;;7.10;5.87;;;3.50;99.90;;;;;;5095347;28;20462;-78
2023/01/28 02:09:41;;;;;;;7.43;5.70;;;3.40;99.90;;;;;;5095298;28;20122;-77
2023/01/28 02:12:12;;;;;;;7.90;6.00;;;3.40;99.90;;;;;;5077177;28;20189;-77
2023/01/28 02:14:54;;;;;;;8.23;5.85;;;3.40;99.90;;;;;;5095282;28;20044;-77
2023/01/28 02:17:21;;;;;;;9.23;6.50;;;3.50;99.90;;;;;;5094265;28;20048;-77
2023/01/28 02:19:55;;;;;;;6.65;5.03;;;3.50;99.90;;;;;;5094902;28;20047;-78
2023/01/28 02:22:52;;;;;;;6.88;5.00;;;3.50;99.90;;;;;;5095279;28;20131;-78
2023/01/28 02:25:42;;;;;;;6.82;5.25;;;3.50;99.90;;;;;;5095002;28;20044;-78
2023/01/28 02:28:12;;;;;;;6.03;3.88;;;3.50;99.90;;;;;;5094435;28;20044;-78
2023/01/28 02:30:47;;;;;;;6.82;4.18;;;3.50;99.90;;;;;;5094968;28;20150;-78
2023/01/28 02:33:34;;;;;;;6.00;4.27;;;3.40;99.90;;;;;;5094683;28;20131;-78
2023/01/28 02:36:08;;;;;;;7.03;4.60;;;3.40;99.90;;;;;;5094737;28;20125;-77
2023/01/28 02:38:44;;;;;;;6.47;4.40;;;3.40;99.90;;;;;;5094614;28;20477;-77
2023/01/28 02:41:44;;;;;;;8.77;5.07;;;3.40;99.90;;;;;;5093631;28;20056;-78
2023/01/28 02:44:10;;;;;;;7.68;5.03;;;3.40;99.90;;;;;;5049100;28;20091;-77
2023/01/28 02:49:37;;;;;;;11.38;6.00;;;3.50;99.90;;;;;;5094563;28;20048;-76
2023/01/28 02:53:39;;;;;;;7.78;5.20;;;3.40;99.90;;;;;;5094381;28;20048;-77
2023/01/28 02:55:29;;;;;;;7.47;4.72;;;3.40;99.90;;;;;;5094058;28;20145;-77
2023/01/28 02:58:06;;;;;;;8.65;4.95;;;3.40;99.90;;;;;;5094194;28;20404;-77
2023/01/28 03:00:53;;;;;;;6.88;4.35;;;3.50;99.90;;;;;;5094661;28;20048;-77
2023/01/28 03:03:33;;;;;;;6.85;4.00;;;3.50;99.90;;;;;;5093068;28;20097;-77
2023/01/28 03:06:08;;;;;;;6.13;4.00;;;3.40;99.90;;;;;;5094025;28;20099;-78
2023/01/28 03:38:47;;;;;;;6.05;2.60;;;3.30;99.90;;;;;;5093405;28;20488;-78
2023/01/28 03:41:20;;;;;;;5.40;2.72;;;3.20;99.90;;;;;;5092982;28;20230;-78
2023/01/28 03:43:46;;;;;;;5.30;3.00;;;3.30;99.90;;;;;;5093856;28;20044;-78
2023/01/28 03:46:12;;;;;;;4.88;3.17;;;3.30;99.90;;;;;;5093086;28;20388;-78
2023/01/28 03:48:38;;;;;;;4.97;3.20;;;3.30;99.90;;;;;;5093341;28;20035;-78
2023/01/28 03:51:04;;;;;;;5.80;3.70;;;3.30;99.90;;;;;;5075308;28;20043;-78
2023/01/28 03:53:29;;;;;;;6.03;3.17;;;3.40;99.90;;;;;;5093380;28;20112;-78
2023/01/28 03:55:55;;;;;;;5.57;3.30;;;3.40;99.90;;;;;;5093418;28;20582;-78
2023/01/28 03:58:25;;;;;;;6.33;3.43;;;3.40;99.90;;;;;;5091797;28;20050;-78
2023/01/28 04:00:52;;;;;;;5.53;3.53;;;3.40;99.90;;;;;;5093364;28;20048;-78
2023/01/28 04:03:20;;;;;;;7.80;3.80;;;3.40;99.90;;;;;;5092726;28;20853;-78
2023/01/28 04:05:56;;;;;;;5.85;4.00;;;3.40;99.90;;;;;;5092067;28;20083;-78
2023/01/28 04:08:22;;;;;;;5.75;3.60;;;3.40;99.90;;;;;;5092925;28;20050;-78
2023/01/28 04:10:47;;;;;;;6.43;4.10;;;3.40;99.90;;;;;;5092413;28;20040;-77
2023/01/28 04:13:13;;;;;;;6.47;3.83;;;3.50;99.90;;;;;;5092819;28;20044;-77
2023/01/28 04:15:39;;;;;;;5.70;4.00;;;3.40;99.90;;;;;;5091922;28;20052;-77
2023/01/28 04:18:05;;;;;;;6.87;4.60;;;3.50;99.90;;;;;;5092737;28;20032;-78
2023/01/28 04:20:31;;;;;;;7.23;4.33;;;3.40;99.90;;;;;;5091760;28;20055;-77
2023/01/28 04:22:56;;;;;;;7.10;4.55;;;3.40;99.90;;;;;;5091901;28;20040;-77
2023/01/28 04:25:22;;;;;;;7.60;4.93;;;3.30;99.90;;;;;;5092742;28;20071;-77
2023/01/28 04:27:48;;;;;;;7.63;4.83;;;3.40;99.90;;;;;;5091978;28;20052;-77
2023/01/28 04:30:14;;;;;;;9.47;5.40;;;3.30;99.90;;;;;;5092648;28;20304;-77
2023/01/28 04:32:40;;;;;;;6.03;4.77;;;3.30;99.90;;;;;;5074993;28;20496;-76
2023/01/28 04:35:06;;;;;;;6.50;4.40;;;3.40;99.90;;;;;;5092725;28;20359;-78
2023/01/28 04:37:31;;;;;;;6.20;4.60;;;3.40;99.90;;;;;;5092846;28;20044;-77
2023/01/28 04:39:57;;;;;;;6.20;4.37;;;3.40;99.90;;;;;;5091619;28;20101;-77
2023/01/28 04:42:23;;;;;;;7.57;4.37;;;3.40;99.90;;;;;;5092553;28;20593;-77
2023/01/28 04:44:48;;;;;;;10.13;5.80;;;3.40;99.90;;;;;;5092038;28;20052;-77
2023/01/28 04:47:14;;;;;;;8.53;5.60;;;3.30;99.90;;;;;;5092558;28;20040;-77
2023/01/28 04:49:40;;;;;;;6.33;4.73;;;3.30;99.90;;;;;;5092636;28;20059;-77
2023/01/28 04:52:05;;;;;;;6.40;4.40;;;3.20;99.90;;;;;;5095523;28;20055;-77
2023/01/28 04:54:31;;;;;;;6.53;4.20;;;3.20;99.90;;;;;;5096877;28;20456;-76
2023/01/28 04:56:57;;;;;;;5.47;4.07;;;3.10;99.90;;;;;;5096936;28;20048;-76
2023/01/28 04:59:22;;;;;;;5.93;4.10;;;3.10;99.90;;;;;;5095462;28;20054;-76
2023/01/28 05:01:49;;;;;;;5.60;4.43;;;3.20;99.90;;;;;;5096721;28;20116;-76
2023/01/28 05:04:16;;;;;;;5.57;4.20;;;3.10;99.90;;;;;;5096412;28;20044;-77
2023/01/28 05:06:42;;;;;;;6.90;4.22;;;3.10;99.90;;;;;;5095584;28;20131;-77
2023/01/28 05:09:08;;;;;;;6.32;4.13;;;3.10;99.90;;;;;;5096245;28;20094;-77
2023/01/28 05:11:33;;;;;;;6.65;3.80;;;3.20;99.90;;;;;;5096693;28;20052;-76
2023/01/28 05:13:59;;;;;;;5.17;3.80;;;3.20;99.90;;;;;;5096608;28;20545;-77
2023/01/28 05:16:25;;;;;;;5.50;4.20;;;3.20;99.90;;;;;;5095864;28;20072;-77
2023/01/28 05:18:51;;;;;;;6.93;4.13;;;3.20;99.90;;;;;;5096362;28;20036;-77
2023/01/28 05:21:17;;;;;;;8.40;4.47;;;3.20;99.90;;;;;;5095056;28;20067;-77
2023/01/28 05:23:43;;;;;;;5.22;3.97;;;3.30;99.90;;;;;;5095113;28;20048;-77
2023/01/28 05:26:09;;;;;;;5.87;3.60;;;3.30;99.90;;;;;;5096538;28;20051;-78
2023/01/28 05:28:35;;;;;;;7.37;3.93;;;3.20;99.90;;;;;;5096092;28;20462;-77
2023/01/28 05:31:05;;;;;;;7.03;4.30;;;3.30;99.90;;;;;;5096111;28;20365;-77
2023/01/28 05:33:32;;;;;;;5.85;4.38;;;3.30;99.90;;;;;;5094232;28;20095;-76
2023/01/28 05:35:57;;;;;;;7.13;4.50;;;3.30;99.90;;;;;;5095979;28;20399;-77
2023/01/28 05:38:23;;;;;;;6.17;4.20;;;3.30;99.90;;;;;;5095715;28;20032;-77
2023/01/28 05:40:49;;;;;;;7.10;4.87;;;3.30;99.90;;;;;;5095948;28;20083;-77
2023/01/28 05:43:15;;;;;;;5.83;4.23;;;3.30;99.90;;;;;;5095580;28;20127;-77
2023/01/28 05:45:41;;;;;;;7.43;4.70;;;3.30;99.90;;;;;;5096066;28;20062;-78
2023/01/28 05:48:07;;;;;;;7.33;4.87;;;3.30;99.90;;;;;;5095687;28;20040;-76
2023/01/28 05:50:33;;;;;;;6.23;4.47;;;3.30;99.90;;;;;;5095432;28;20274;-77
2023/01/28 05:52:58;;;;;;;5.63;4.00;;;3.30;99.90;;;;;;5095747;28;20055;-77
2023/01/28 05:55:24;;;;;;;6.30;4.33;;;3.30;99.90;;;;;;5095410;28;20044;-77
2023/01/28 05:57:50;;;;;;;5.70;4.27;;;3.30;99.90;;;;;;5094645;28;20535;-77
2023/01/28 06:00:17;;;;;;;5.60;3.90;;;3.30;99.90;;;;;;5095400;28;20052;-77
2023/01/28 06:02:42;;;;;;;6.15;4.55;;;3.30;99.90;;;;;;5093629;28;20051;-77
2023/01/28 06:05:08;;;;;;;7.97;4.20;;;3.30;99.90;;;;;;5094611;28;20048;-77
2023/01/28 06:07:34;;;;;;;6.78;4.78;;;3.30;99.90;;;;;;5093990;28;20044;-76
2023/01/28 06:10:00;;;;;;;7.00;4.70;;;3.30;99.90;;;;;;5095338;28;20063;-77
2023/01/28 06:12:26;;;;;;;6.50;4.57;;;3.20;99.90;;;;;;5095088;28;20048;-76
2023/01/28 06:14:51;;;;;;;7.53;5.00;;;3.20;99.90;;;;;;5095052;28;20152;-76
2023/01/28 06:17:17;;;;;;;6.17;4.67;;;3.30;99.90;;;;;;5093934;28;20040;-77
2023/01/28 06:19:43;;;;;;;6.00;4.33;;;3.20;99.90;;;;;;5095413;28;20044;-76
2023/01/28 06:22:09;;;;;;;6.97;4.60;;;3.20;99.90;;;;;;5095234;28;20055;-77
2023/01/28 06:24:35;;;;;;;6.15;4.68;;;3.20;99.90;;;;;;5094845;28;20058;-77
2023/01/28 06:27:01;;;;;;;7.20;4.63;;;3.20;99.90;;;;;;5095096;28;20126;-77
2023/01/28 06:29:27;;;;;;;6.50;4.77;;;3.20;99.90;;;;;;5093520;28;20051;-77
2023/01/28 06:31:53;;;;;;;5.90;4.20;;;3.10;99.90;;;;;;5093954;28;20056;-77
2023/01/28 06:34:19;;;;;;;7.37;4.57;;;3.20;99.90;;;;;;5093241;28;20695;-77
2023/01/28 06:36:45;;;;;;;6.63;4.43;;;3.20;99.90;;;;;;5094802;28;20646;-77
2023/01/28 06:39:10;;;;;;;7.37;4.20;;;3.20;99.90;;;;;;5076845;28;20044;-77
2023/01/28 06:41:36;;;;;;;7.40;5.10;;;3.20;99.90;;;;;;5093382;28;20165;-77
2023/01/28 06:44:02;;;;;;;6.37;4.50;;;3.20;99.90;;;;;;5093681;28;20047;-77
2023/01/28 06:46:28;;;;;;;7.27;5.03;;;3.20;99.90;;;;;;5093477;28;20184;-77
2023/01/28 06:48:53;;;;;;;6.93;5.20;;;3.10;99.90;;;;;;5094648;28;20043;-77
2023/01/28 06:51:19;;;;;;;7.50;5.30;;;3.10;99.90;;;;;;5094325;28;20051;-77
2023/01/28 06:53:45;;;;;;;7.40;4.53;;;3.10;99.90;;;;;;5093262;28;20606;-76
2023/01/28 06:56:10;;;;;;;7.07;4.97;;;3.20;99.90;;;;;;5094476;28;20051;-77
2023/01/28 06:58:36;;;;;;;7.00;5.03;;;3.20;99.90;;;;;;5094179;28;20040;-77
2023/01/28 07:01:02;;;;;;;6.87;5.10;;;3.20;99.90;;;;;;5093147;28;20043;-77
2023/01/28 07:03:28;;;;;;;6.87;5.23;;;3.20;99.90;;;;;;5094073;28;20131;-77
2023/01/28 07:05:54;;;;;;;7.68;5.93;;;3.20;99.90;;;;;;5094312;28;20370;-77
2023/01/28 07:08:20;;;;;;;6.57;5.13;;;3.20;99.90;;;;;;5094365;28;20131;-76
2023/01/28 07:10:45;;;;;;;6.53;5.33;;;3.10;99.90;;;;;;5093941;28;20050;-77
2023/01/28 07:13:11;;;;;;;8.87;5.63;;;3.10;99.90;;;;;;5076305;28;20043;-77
2023/01/28 07:15:37;;;;;;;7.23;5.53;;;3.10;99.90;;;;;;5092803;28;20036;-77
2023/01/28 07:18:03;;;;;;;8.47;5.03;;;3.20;99.90;;;;;;5093118;28;20043;-77
2023/01/28 07:20:28;;;;;;;7.27;5.60;;;3.10;99.90;;;;;;5093686;28;20080;-77
2023/01/28 07:22:54;;;;;;;7.23;5.50;;;3.00;99.90;;;;;;5093903;28;20062;-77
2023/01/28 07:25:20;;;;;;;7.70;5.57;;;3.00;99.90;;;;;;5092970;28;20051;-77
2023/01/28 07:27:54;;;;;;;7.70;5.83;;;2.90;99.90;;;;;;5093499;28;20451;-77
2023/01/28 07:30:21;;;;;;;9.63;6.45;;;2.90;99.90;;;;;;5092815;28;20050;-76
2023/01/28 07:32:46;;;;;;;7.72;5.85;;;2.80;99.90;;;;;;5093313;28;20175;-76
2023/01/28 07:35:12;;;;;;;7.60;6.10;;;2.80;99.90;;;;;;5093744;28;20087;-77
2023/01/28 07:37:39;;;;;;;7.63;5.63;;;2.80;99.90;;;;;;5092583;28;20066;-77
2023/01/28 07:40:05;;;;;;;7.82;5.70;;;2.70;99.90;;;;;;5093689;28;20131;-77
2023/01/28 07:42:31;;;;;;;6.80;5.35;;;2.70;99.90;;;;;;5093376;28;20051;-77
2023/01/28 07:44:57;;;;;;;8.55;6.13;;;2.70;99.90;;;;;;5093618;28;20122;-77
2023/01/28 07:47:23;;;;;;;10.10;5.83;;;2.60;99.90;;;;;;5093548;28;20147;-76
2023/01/28 07:49:48;;;;;;;8.90;6.33;;;2.70;99.90;;;;;;5091984;28;20079;-77
2023/01/28 07:52:14;;;;;;;7.70;6.23;;;2.70;99.90;;;;;;5092434;28;20047;-77
2023/01/28 07:54:40;;;;;;;9.73;6.60;;;2.70;99.90;;;;;;5092036;28;20415;-77
2023/01/28 07:57:08;;;;;;;10.87;6.97;;;2.70;99.90;;;;;;5093598;28;20104;-77
2023/01/28 07:59:35;;;;;;;8.85;6.88;;;2.70;99.90;;;;;;5093054;28;20048;-77
2023/01/28 08:02:00;;;;;;;7.90;6.32;;;2.70;99.90;;;;;;5092991;28;20475;-77
2023/01/28 08:04:26;;;;;;;9.20;6.40;;;2.70;99.90;;;;;;5093192;28;20044;-76
2023/01/28 08:06:52;;;;;;;8.60;6.20;;;2.70;99.90;;;;;;5092917;28;20048;-78
2023/01/28 08:09:17;;;;;;;10.03;6.77;;;2.80;99.90;;;;;;5091927;28;20498;-77
2023/01/28 08:11:43;;;;;;;13.27;7.07;;;2.80;99.90;;;;;;5092460;28;20044;-77
2023/01/28 08:14:12;;;;;;;9.00;7.70;;;2.80;99.90;;;;;;5093053;28;20048;-78
2023/01/28 08:16:38;;;;;;;9.55;7.82;;;2.80;99.90;;;;;;5091552;28;20052;-78
2023/01/28 08:19:03;;;;;;;9.90;8.27;;;2.80;99.90;;;;;;5091661;28;20101;-78
2023/01/28 08:21:29;;;;;;;10.50;9.00;;;2.80;99.90;;;;;;5091866;28;20052;-77
2023/01/28 08:23:55;;;;;;;10.70;8.60;;;2.80;99.90;;;;;;5092741;28;20105;-77
2023/01/28 08:26:21;;;;;;;11.95;9.18;;;2.90;99.90;;;;;;5074879;28;20087;-78
2023/01/28 08:28:47;;;;;;;14.03;10.40;;;3.00;99.90;;;;;;5091535;28;20090;-79
2023/01/28 08:31:13;;;;;;;13.07;9.90;;;3.00;99.90;;;;;;5091848;28;20339;-78
2023/01/28 08:33:39;;;;;;;12.63;10.00;;;3.00;99.90;;;;;;5092072;28;20071;-79
2023/01/28 08:36:05;;;;;;;11.17;8.80;;;3.00;99.90;;;;;;5092948;28;20098;-78
2023/01/28 08:38:31;;;;;;;9.35;7.90;;;3.10;99.90;;;;;;5091686;28;20123;-78
2023/01/28 08:40:57;;;;;;;10.27;7.30;;;3.10;99.90;;;;;;5092560;28;20503;-78
2023/01/28 08:43:23;;;;;;;12.27;7.05;;;3.10;99.90;;;;;;5091540;28;20048;-78
2023/01/28 08:45:49;;;;;;;9.03;7.53;;;3.10;99.90;;;;;;5092557;28;20479;-76
2023/01/28 08:48:17;;;;;;;11.00;7.47;;;3.10;99.90;;;;;;5092806;28;20044;-76
2023/01/28 08:50:43;;;;;;;9.43;7.68;;;3.10;99.90;;;;;;5092582;28;20514;-76
2023/01/28 08:53:15;;;;;;;10.73;8.13;;;3.10;99.90;;;;;;5092718;28;20056;-76
2023/01/28 08:55:40;;;;;;;13.45;9.07;;;3.10;99.90;;;;;;5092698;28;20043;-73
2023/01/28 08:58:11;;;;;;;11.03;9.20;;;3.10;99.90;;;;;;5091761;28;20052;-73
2023/01/28 09:00:38;;;;;;;9.98;8.52;;;3.20;99.90;;;;;;5092595;28;20051;-75
2023/01/28 09:03:05;;;;;;;9.73;8.13;;;3.20;99.90;;;;;;5092967;28;20091;-75
2023/01/28 09:05:31;;;;;;;11.02;8.10;;;3.20;99.90;;;;;;5092678;28;20044;-74
2023/01/28 09:08:01;;;;;;;11.63;8.80;;;3.20;99.90;;;;;;5092264;28;20534;-74
2023/01/28 09:10:27;;;;;;;9.48;7.57;;;3.20;99.90;;;;;;5092914;28;20149;-74
2023/01/28 09:12:53;;;;;;;10.07;8.13;;;3.10;99.90;;;;;;5092409;28;20429;-74
2023/01/28 09:15:19;;;;;;;10.90;8.50;;;3.10;99.90;;;;;;5091416;28;20052;-74
2023/01/28 09:17:44;;;;;;;11.60;8.27;;;3.10;99.90;;;;;;5090903;28;20079;-74
2023/01/28 09:20:11;;;;;;;10.50;8.80;;;3.10;99.90;;;;;;5091120;28;20079;-75
2023/01/28 09:22:38;;;;;;;11.68;8.48;;;3.00;99.90;;;;;;5092530;28;20430;-74
2023/01/28 09:25:04;;;;;;;11.30;8.57;;;3.00;99.90;;;;;;5091370;28;20052;-74
2023/01/28 09:27:30;;;;;;;9.88;8.35;;;3.10;99.90;;;;;;5092289;28;20097;-74
2023/01/28 09:29:56;;;;;;;9.75;8.57;;;3.00;99.90;;;;;;5091976;28;20151;-75
2023/01/28 09:32:23;;;;;;;11.60;8.50;;;3.00;99.90;;;;;;5092304;28;20063;-75
2023/01/28 09:34:49;;;;;;;10.85;8.85;;;3.00;99.90;;;;;;5091650;28;20067;-74
2023/01/28 09:37:16;;;;;;;10.40;9.30;;;3.00;99.90;;;;;;5092273;28;20396;-74
2023/01/28 09:39:42;;;;;;;9.35;7.95;;;3.10;99.90;;;;;;5095674;28;20480;-74
2023/01/28 09:42:33;;;;;;;10.70;8.80;;;3.10;99.90;;;;;;5096403;28;20093;-74
2023/01/28 09:45:11;;;;;;;10.77;9.10;;;3.10;99.90;;;;;;5095625;28;20043;-74
2023/01/28 09:47:50;;;;;;;11.50;9.35;;;3.20;99.90;;;;;;5094907;28;20495;-74
2023/01/28 09:50:45;;;;;;;11.40;9.00;;;3.20;99.90;;;;;;5095997;28;20048;-73
2023/01/28 09:53:21;;;;;;;10.80;9.13;;;3.20;99.90;;;;;;5095787;28;20039;-73
2023/01/28 09:55:56;;;;;;;11.63;8.98;;;3.30;99.90;;;;;;5095577;28;20130;-74
2023/01/28 09:58:22;;;;;;;8.25;6.90;;;3.40;99.90;;;;;;5094885;28;20098;-73
2023/01/28 10:01:08;;;;;;;10.50;8.20;;;3.40;99.90;;;;;;5095337;28;20079;-74
2023/01/28 10:04:04;;;;;;;10.52;8.25;;;3.50;99.90;;;;;;5095697;28;20044;-73
2023/01/28 10:06:40;;;;;;;10.13;7.78;;;3.60;99.90;;;;;;5095629;28;20059;-74
2023/01/28 10:09:34;;;;;;;10.25;8.68;;;3.60;99.90;;;;;;5095250;28;20046;-70
2023/01/28 10:12:21;;;;;;;11.68;8.40;;;3.60;99.90;;;;;;5077338;28;20451;-73
2023/01/28 10:15:24;;;;;;;14.48;8.70;;;3.60;99.90;;;;;;5092994;28;20507;-75
2023/01/28 10:17:53;;;;;;;12.40;8.35;;;3.50;99.90;;;;;;5091988;28;20044;-75
2023/01/28 10:20:25;;;;;;;9.45;7.35;;;3.50;99.90;;;;;;5075513;28;20438;-73
2023/01/28 10:22:59;;;;;;;9.70;8.10;;;3.50;99.90;;;;;;5093925;28;20097;-74
2023/01/28 10:25:28;;;;;;;10.60;8.00;;;3.50;99.90;;;;;;5091710;28;20119;-74
2023/01/28 10:27:54;;;;;;;10.50;8.20;;;3.60;99.90;;;;;;5093094;28;20071;-76
2023/01/28 10:30:24;;;;;;;10.00;8.37;;;3.80;99.90;;;;;;5074905;28;20040;-78
2023/01/28 10:33:02;;;;;;;10.00;8.38;;;3.90;99.90;;;;;;5090317;28;20500;-81
2023/01/28 10:35:34;;;;;;;9.88;8.35;;;4.00;99.90;;;;;;5092958;28;20059;-82
2023/01/28 10:38:06;;;;;;;10.32;7.50;;;4.10;99.90;;;;;;5092915;28;20048;-81
2023/01/28 10:40:32;;;;;;;10.10;8.18;;;4.20;99.90;;;;;;5091248;28;20048;-82
2023/01/28 10:42:58;;;;;;;9.70;7.45;;;4.20;99.90;;;;;;5094140;28;20040;-80
2023/01/28 10:45:28;;;;;;;11.30;7.87;;;4.30;99.90;;;;;;5076465;28;20056;-81
2023/01/28 10:48:17;;;;;;;10.25;7.55;;;4.30;99.90;;;;;;5090966;28;20479;-78
2023/01/28 10:51:03;;;;;;;9.70;7.20;;;4.30;99.90;;;;;;5092131;28;20479;-80
2023/01/28 10:53:47;;;;;;;8.88;7.28;;;4.30;99.90;;;;;;5093383;28;20081;-81
2023/01/28 10:56:34;;;;;;;10.07;7.35;;;4.40;99.90;;;;;;5090483;28;20047;-80
2023/01/28 10:59:03;;;;;;;9.27;7.80;;;4.40;99.90;;;;;;5068527;28;20080;-82
2023/01/28 11:01:50;;;;;;;9.98;7.75;;;4.40;99.90;;;;;;5091242;28;20048;-81
2023/01/28 11:04:24;;;;;;;9.38;7.43;;;4.50;99.90;;;;;;5092166;28;20058;-80
2023/01/28 11:06:57;;;;;;;11.40;8.38;;;4.50;99.90;;;;;;5091379;28;20056;-81
2023/01/28 11:09:35;;;;;;;11.38;7.75;;;4.60;99.90;;;;;;5092631;28;20036;-81
2023/01/28 11:12:22;;;;;;;12.65;8.10;;;4.70;99.90;;;;;;5092508;28;20048;-75
2023/01/28 11:14:56;;;;;;;9.40;8.13;;;4.70;99.90;;;;;;5093683;28;20480;-83
2023/01/28 11:17:25;;;;;;;9.02;7.38;;;4.80;99.90;;;;;;5092542;28;20463;-77
2023/01/28 11:19:53;;;;;;;10.10;7.53;;;4.80;99.90;;;;;;5091099;28;20071;-82
2023/01/28 11:22:41;;;;;;;9.05;6.93;;;4.90;99.90;;;;;;5092970;28;20519;-81
2023/01/28 11:25:31;;;;;;;9.68;7.10;;;5.00;99.90;;;;;;5093769;28;20044;-80
2023/01/28 11:27:58;;;;;;;8.77;7.38;;;5.00;99.90;;;;;;5093574;28;20070;-78
2023/01/28 11:30:32;;;;;;;9.70;6.75;;;5.00;99.90;;;;;;5094531;28;20127;-81
2023/01/28 11:33:11;;;;;;;8.50;6.43;;;5.10;99.90;;;;;;5092267;28;20523;-82
2023/01/28 11:35:37;;;;;;;9.02;7.28;;;5.10;99.90;;;;;;5094250;28;20135;-81
2023/01/28 11:38:17;;;;;;;9.50;7.03;;;5.10;99.90;;;;;;5093935;28;20048;-81
2023/01/28 11:40:57;;;;;;;8.98;6.78;;;5.10;99.90;;;;;;5094298;28;20440;-75
2023/01/28 11:43:32;;;;;;;9.77;6.90;;;5.10;99.90;;;;;;5094088;28;20051;-75
2023/01/28 11:46:00;;;;;;;9.50;7.18;;;5.20;99.90;;;;;;5092625;28;20048;-82
2023/01/28 11:48:53;;;;;;;9.00;6.93;;;5.20;99.90;;;;;;5094856;28;20048;-81
2023/01/28 11:51:37;;;;;;;11.88;7.30;;;5.20;99.90;;;;;;5093471;28;20059;-81
2023/01/28 11:54:28;;;;;;;10.48;7.25;;;5.20;99.90;;;;;;5093421;28;20092;-80
2023/01/28 11:57:10;;;;;;;10.50;7.57;;;5.30;99.90;;;;;;5092701;28;20578;-80
2023/01/28 11:59:54;;;;;;;9.43;6.88;;;5.30;99.90;;;;;;5092712;28;20357;-79
2023/01/28 12:02:20;;;;;;;9.55;7.13;;;5.40;99.90;;;;;;5092866;28;20052;-75
2023/01/28 12:05:01;;;;;;;8.60;6.67;;;5.50;99.90;;;;;;5093288;28;20066;-76
2023/01/28 12:07:29;;;;;;;11.43;6.68;;;5.50;99.90;;;;;;5093377;28;20044;-77
2023/01/28 12:10:07;;;;;;;10.85;7.10;;;5.50;99.90;;;;;;5092133;28;20400;-76
2023/01/28 12:12:54;;;;;;;8.48;5.60;;;5.50;99.90;;;;;;5093548;28;20044;-78
2023/01/28 12:15:32;;;;;;;9.05;5.55;;;5.40;99.90;;;;;;5092120;28;20060;-76
2023/01/28 12:18:07;;;;;;;7.53;5.82;;;5.40;99.90;;;;;;5093141;28;20053;-75
2023/01/28 12:21:05;;;;;;;8.02;5.88;;;5.30;99.90;;;;;;5093173;28;20047;-74
2023/01/28 12:24:01;;;;;;;8.95;5.97;;;5.20;99.90;;;;;;5090658;28;20052;-73
2023/01/28 12:26:48;;;;;;;8.38;5.90;;;5.10;99.90;;;;;;5093447;28;20047;-77
2023/01/28 12:29:14;;;;;;;9.63;6.40;;;5.00;99.90;;;;;;5092086;28;20524;-78
2023/01/28 12:32:01;;;;;;;9.23;6.23;;;5.00;99.90;;;;;;5093097;28;20181;-75
2023/01/28 12:34:50;;;;;;;8.02;5.72;;;4.90;99.90;;;;;;5091429;28;20193;-75
2023/01/28 12:38:02;;;;;;;8.70;6.05;;;4.90;99.90;;;;;;5089511;28;20070;-77
2023/01/28 12:40:56;;;;;;;9.57;5.63;;;4.90;99.90;;;;;;5093191;28;20090;-73
2023/01/28 12:43:52;;;;;;;11.43;6.97;;;4.90;99.90;;;;;;5091717;28;20040;-77
2023/01/28 12:46:37;;;;;;;;;;;4.90;99.90;;;;;;5085344;28;20102;-78
2023/01/28 12:49:06;;;;;;;9.77;6.72;;;4.80;99.90;;;;;;5088361;28;19919;-73
2023/01/28 12:51:45;;;;;;;10.20;6.53;;;4.90;99.90;;;;;;5091263;28;20072;-76
2023/01/28 12:54:18;;;;;;;10.93;7.60;;;4.80;99.90;;;;;;5091103;28;20055;-75
2023/01/28 12:56:52;;;;;;;10.48;7.55;;;4.80;99.90;;;;;;5090263;28;20160;-78
2023/01/28 12:59:26;;;;;;;10.07;7.28;;;4.80;99.90;;;;;;5090986;28;20035;-74
2023/01/28 13:02:13;;;;;;;10.23;8.18;;;4.80;99.90;;;;;;5085607;28;20052;-78
2023/01/28 13:04:50;;;;;;;10.32;7.55;;;4.80;99.90;;;;;;5088033;28;20056;-76
2023/01/28 13:07:31;;;;;;;9.75;7.35;;;4.90;99.90;;;;;;5090949;28;20059;-78
2023/01/28 13:10:06;;;;;;;14.52;8.35;;;4.90;99.90;;;;;;5090125;28;20067;-75
2023/01/28 13:12:34;;;;;;;12.13;8.05;;;5.00;99.90;;;;;;5095144;28;20396;-80
2023/01/28 13:15:00;;;;;;;10.80;8.73;;;5.10;99.90;;;;;;5090419;28;20054;-77
2023/01/28 13:17:31;;;;;;;12.10;8.20;;;5.10;99.90;;;;;;5092672;28;20067;-76
2023/01/28 13:19:58;;;;;;;10.95;7.80;;;5.10;99.90;;;;;;5094384;28;20044;-75
2023/01/28 13:22:35;;;;;;;10.35;6.80;;;5.10;99.90;;;;;;5099876;28;20048;-75
2023/01/28 13:25:23;;;;;;;10.10;7.18;;;5.10;99.90;;;;;;5094021;28;20076;-78
2023/01/28 13:27:55;;;;;;;11.27;7.30;;;5.10;99.90;;;;;;5102773;28;20080;-78
2023/01/28 13:30:25;;;;;;;9.90;7.13;;;5.10;99.90;;;;;;5089191;28;20076;-75
2023/01/28 13:33:05;;;;;;;10.68;6.93;;;5.10;99.90;;;;;;5095601;28;20048;-79
2023/01/28 13:35:33;;;;;;;8.98;6.60;;;5.10;99.90;;;;;;5092235;28;20062;-75
2023/01/28 13:38:06;;;;;;;11.40;7.50;;;5.00;99.90;;;;;;5097321;28;20051;-80
2023/01/28 13:40:33;;;;;;;11.15;6.80;;;5.00;99.90;;;;;;5094718;28;20055;-79
2023/01/28 13:43:01;;;;;;;8.95;6.53;;;5.00;99.90;;;;;;5097564;28;20154;-80
2023/01/28 13:45:27;;;;;;;10.98;6.90;;;5.00;99.90;;;;;;5088764;28;20036;-75
2023/01/28 13:48:01;;;;;;;9.95;6.97;;;5.10;99.90;;;;;;5100443;28;20044;-77